Hovedside
METAR-TAF:

METAR-TAF

Lufthavner :

Stokmarknes, Norge

Stokmarknes lufthavn. Skagen

breddegrad: 68-35N, lengdegrad: 015-01E, høyde over havet: 0 m

Gjeldene værobservasjon

Denne rapporten ble laget for 1 time og 3 minutter siden, klokken 12:50 UTC
Vind 8 kt fra Sørøst
Temperatur -3°C
Luftfuktighet 42%
Trykk 1045 hPa
Sikt 10 km eller mer
ingen skyer under 1500 m og ingen bygeskyer

METAR: ENSK 251250Z 13008KT CAVOK M03/M14 Q1045

Tid: 14:53 (13:53 UTC)


TAF: fraværende

Værobservasjoner og værvarsel for over 4000 flyplasser (METAR- og TAF-rapporter).

Tilgjengelige stasjoner er representert av de røde og gule prikkene på kartet.

Hold musepekeren over prikken for å se navnet på stasjonen.

Klikk så for å se værobservasjoner og -varsler.

For å forandre kartet kan du klikke på den grønne knappen med svart kryss for å zoome inn, på den grønne knappen med strek for å zoome ut, eller på de grønne pilene for å se tilstøtende kart.


METAR-TAF: